GMMZ

Ouarzazate Airport

Ouarzazate, Morocco
METAR GMMZ 170700Z 25002KT 9999 SCT040 07/M01 Q1019 NOSIG
Observed Flight Rules
Dec-17 @ 07:00 UTC (an hour ago) Visual Flight Rules
Wind Visibility Clouds
250° at 2 knots 10,000+ meters
  • Scattered at 4,000' AGL
Temperatures Readings
Current 7°C / 45°F
Dewpoint -1°C / 30°F
Humidity 57%
Altimeter 30.09" Hg
Pressure 1019 hPa
Elevation 1140
METAR GMMZ 170700Z 25002KT 9999 SCT040 07/M01 Q1019 NOSIG
Observed Flight Rules
Dec-17 @ 07:00 UTC
(an hour ago)
VFR
Wind Visibility
250° at 2 knots 10,000+ meters
Clouds
  • Scattered at 4,000' AGL
Temperature Dewpoint
7°C / 45°F -1°C / 30°F
Humidity Altimeter Pressure
57% 30.09" Hg 1019 hPa